Time;durP1;ratioP1;P1;durP2;ratioP2;P2;SDS_P1;SDS_P2;PMS_P1;PMS_P2;Temp;Humidity;BMP_temperature;BMP_pressure;BME280_temperature;BME280_humidity;BME280_pressure;Samples;Min_cycle;Max_cycle;Signal;HPM_P1;HPM_P2
2024/02/01 00:00:56;;;;;;;46.70;26.38;;;;;;;2.29;68.77;99488.00;5051857;28;20048;-61
2024/02/01 00:03:21;;;;;;;46.13;28.05;;;;;;;2.25;69.35;99487.28;5051871;27;20029;-63
2024/02/01 00:05:47;;;;;;;45.22;26.85;;;;;;;2.28;69.32;99481.84;5051062;28;20047;-62
2024/02/01 00:08:12;;;;;;;45.30;25.70;;;;;;;2.26;69.20;99461.75;5051141;28;20063;-62
2024/02/01 00:10:38;;;;;;;43.67;25.45;;;;;;;2.32;69.20;99463.22;5050761;28;20029;-61
2024/02/01 00:13:03;;;;;;;39.03;24.05;;;;;;;2.35;69.64;99460.41;5051730;28;20428;-62
2024/02/01 00:15:29;;;;;;;42.85;23.90;;;;;;;2.37;69.32;99472.59;5051051;28;20459;-62
2024/02/01 00:17:55;;;;;;;40.63;24.58;;;;;;;2.37;69.43;99469.94;5050824;28;20033;-62
2024/02/01 00:20:20;;;;;;;41.83;23.90;;;;;;;2.39;69.54;99470.72;5051672;28;20036;-62
2024/02/01 00:22:46;;;;;;;40.95;24.67;;;;;;;2.29;69.78;99443.97;5051815;28;20120;-62
2024/02/01 00:25:12;;;;;;;46.88;25.00;;;;;;;2.39;70.18;99460.16;5051124;28;20040;-62
2024/02/01 00:27:37;;;;;;;44.78;25.13;;;;;;;2.44;69.74;99458.16;5050716;28;20690;-61
2024/02/01 00:30:03;;;;;;;45.83;27.33;;;;;;;2.42;70.01;99449.44;5051321;28;20029;-63
2024/02/01 00:32:32;;;;;;;42.05;25.80;;;;;;;2.46;70.41;99441.34;5050038;28;20111;-63
2024/02/01 00:34:58;;;;;;;43.45;26.55;;;;;;;2.50;69.78;99448.19;5051034;28;20122;-63
2024/02/01 00:37:23;;;;;;;43.78;26.13;;;;;;;2.51;70.15;99442.78;5049594;28;20074;-63
2024/02/01 00:39:49;;;;;;;38.78;23.75;;;;;;;2.48;69.74;99439.47;5050667;28;20117;-63
2024/02/01 00:42:15;;;;;;;37.78;23.63;;;;;;;2.49;70.62;99433.25;5050880;28;20059;-62
2024/02/01 00:44:40;;;;;;;40.60;23.63;;;;;;;2.51;70.48;99426.94;5054852;27;20025;-62
2024/02/01 00:47:09;;;;;;;37.58;22.30;;;;;;;2.39;70.24;99411.75;5086279;27;20038;-62
2024/02/01 00:49:35;;;;;;;40.90;22.55;;;;;;;2.43;70.99;99416.81;5134545;27;20104;-62
2024/02/01 00:52:01;;;;;;;36.72;22.35;;;;;;;2.34;70.83;99404.06;5135400;27;20023;-61
2024/02/01 00:54:27;;;;;;;33.85;21.75;;;;;;;2.48;70.66;99400.69;5134792;27;20058;-62
2024/02/01 00:56:53;;;;;;;36.78;23.15;;;;;;;2.43;71.26;99395.66;5134704;27;20399;-62
2024/02/01 00:59:22;;;;;;;37.47;22.55;;;;;;;2.44;71.10;99389.44;5128826;27;20027;-61
2024/02/01 01:01:47;;;;;;;35.78;22.45;;;;;;;2.54;70.92;99396.84;5030312;28;20041;-62
2024/02/01 01:04:15;;;;;;;38.20;22.02;;;;;;;2.45;71.16;99382.34;5030400;28;20052;-61
2024/02/01 01:06:42;;;;;;;39.33;22.70;;;;;;;2.54;70.85;99399.50;5030726;28;20034;-62
2024/02/01 01:09:08;;;;;;;33.80;20.67;;;;;;;2.53;70.33;99400.44;5043654;28;20017;-63
2024/02/01 01:11:34;;;;;;;32.47;19.75;;;;;;;2.56;70.73;99393.22;5050201;28;20112;-62
2024/02/01 01:14:00;;;;;;;35.30;21.55;;;;;;;2.43;70.38;99373.66;5050787;28;20170;-64
2024/02/01 01:16:27;;;;;;;35.75;22.55;;;;;;;2.55;70.78;99377.41;5049348;28;20230;-61
2024/02/01 01:18:52;;;;;;;34.83;21.45;;;;;;;2.56;71.19;99392.34;5050289;28;20037;-62
2024/02/01 01:21:18;;;;;;;36.55;21.98;;;;;;;2.35;70.66;99339.72;5049931;28;20367;-62
2024/02/01 01:23:43;;;;;;;36.60;22.30;;;;;;;2.55;70.79;99367.72;5049941;28;20475;-61
2024/02/01 01:26:09;;;;;;;35.90;21.77;;;;;;;2.61;70.89;99366.50;5049300;28;20352;-62
2024/02/01 01:28:34;;;;;;;32.92;21.58;;;;;;;2.66;70.62;99367.13;5050378;28;20470;-62
2024/02/01 01:31:00;;;;;;;37.88;22.30;;;;;;;2.61;70.84;99363.88;5050199;28;20044;-62
2024/02/01 01:33:25;;;;;;;37.60;22.83;;;;;;;2.66;70.52;99366.25;5050415;28;20029;-61
2024/02/01 01:35:51;;;;;;;36.30;22.52;;;;;;;2.55;70.79;99366.84;5048823;28;20397;-62
2024/02/01 01:38:17;;;;;;;34.90;21.98;;;;;;;2.60;70.55;99363.97;5050138;28;20056;-63
2024/02/01 01:40:42;;;;;;;37.08;22.35;;;;;;;2.51;70.40;99352.94;5049778;28;20393;-61
2024/02/01 01:43:08;;;;;;;39.63;22.73;;;;;;;2.60;71.04;99356.88;5049170;28;20028;-62
2024/02/01 01:45:33;;;;;;;37.17;22.33;;;;;;;2.63;70.58;99354.06;5049176;28;20467;-61
2024/02/01 01:47:59;;;;;;;40.85;22.98;;;;;;;2.64;70.67;99347.81;5050427;28;20066;-63
2024/02/01 01:50:25;;;;;;;38.03;22.95;;;;;;;2.48;71.23;99326.69;5050163;28;20053;-62
2024/02/01 01:52:52;;;;;;;34.58;20.85;;;;;;;2.65;70.88;99343.41;5049441;28;20033;-62
2024/02/01 01:55:18;;;;;;;36.08;21.42;;;;;;;2.62;70.90;99327.72;5049693;28;20037;-62
2024/02/01 01:57:44;;;;;;;39.15;22.77;;;;;;;2.66;70.93;99334.53;5048957;28;20078;-62
2024/02/01 02:00:12;;;;;;;39.78;22.67;;;;;;;2.69;71.34;99335.22;5049140;28;20403;-61
2024/02/01 02:02:39;;;;;;;33.05;20.13;;;;;;;2.49;71.41;99290.56;5048254;28;20036;-63
2024/02/01 02:05:05;;;;;;;34.20;20.88;;;;;;;2.71;71.17;99320.13;5049726;28;20033;-61
2024/02/01 02:07:31;;;;;;;33.65;20.02;;;;;;;2.43;70.06;99265.31;5049676;27;20305;-63
2024/02/01 02:10:00;;;;;;;30.65;18.55;;;;;;;2.65;70.19;99309.91;5049980;28;20488;-61
2024/02/01 02:12:27;;;;;;;29.27;18.38;;;;;;;2.56;70.56;99297.19;5049534;28;20028;-62
2024/02/01 02:15:03;;;;;;;31.13;18.27;;;;;;;2.53;70.89;99277.09;5049472;28;20463;-61
2024/02/01 02:17:39;;;;;;;26.77;17.05;;;;;;;2.64;69.99;99291.50;5049275;28;20345;-62
2024/02/01 02:20:26;;;;;;;29.40;17.75;;;;;;;2.63;70.54;99295.91;5034357;28;20052;-62
2024/02/01 02:22:54;;;;;;;27.63;17.48;;;;;;;2.60;70.61;99271.47;5048874;28;20033;-62
2024/02/01 02:25:21;;;;;;;31.30;17.73;;;;;;;2.54;70.81;99262.09;5049406;28;20060;-61
2024/02/01 02:27:47;;;;;;;25.80;17.20;;;;;;;2.61;71.23;99268.72;5049665;28;20060;-62
2024/02/01 02:30:12;;;;;;;27.65;17.10;;;;;;;2.43;70.57;99225.69;5048947;28;20032;-61
2024/02/01 02:32:39;;;;;;;26.90;16.73;;;;;;;2.61;71.04;99252.03;5028767;28;20033;-61
2024/02/01 02:35:12;;;;;;;26.05;16.20;;;;;;;2.64;71.65;99252.69;5037134;28;20154;-62
2024/02/01 02:37:49;;;;;;;25.85;16.80;;;;;;;2.69;71.44;99261.22;5049226;28;20064;-63
2024/02/01 02:40:19;;;;;;;29.67;17.42;;;;;;;2.61;71.69;99246.72;5048863;28;20352;-61
2024/02/01 02:42:45;;;;;;;27.40;16.75;;;;;;;2.60;71.32;99253.78;5048718;28;20029;-61
2024/02/01 02:45:11;;;;;;;24.70;16.75;;;;;;;2.65;71.14;99246.47;5048824;28;20448;-62
2024/02/01 02:47:37;;;;;;;25.02;15.95;;;;;;;2.62;71.60;99238.69;5048548;28;20433;-62
2024/02/01 02:50:06;;;;;;;27.55;17.02;;;;;;;2.58;71.58;99239.81;5048062;28;20048;-61
2024/02/01 02:52:33;;;;;;;30.23;17.85;;;;;;;2.54;71.44;99231.25;5048058;28;20048;-61
2024/02/01 02:54:59;;;;;;;28.42;17.30;;;;;;;2.56;71.26;99233.78;5049555;28;20120;-62
2024/02/01 02:57:24;;;;;;;28.17;17.55;;;;;;;2.53;71.58;99224.25;5051310;28;20467;-63
2024/02/01 02:59:50;;;;;;;30.67;18.00;;;;;;;2.36;71.81;99196.13;5052022;28;20119;-61
2024/02/01 03:02:15;;;;;;;31.70;17.42;;;;;;;2.57;71.72;99209.03;5052484;28;20037;-62
2024/02/01 03:04:41;;;;;;;30.98;17.88;;;;;;;2.58;71.16;99226.59;5052098;28;20039;-61
2024/02/01 03:07:08;;;;;;;27.05;16.55;;;;;;;2.56;71.98;99217.91;5051713;28;20025;-62
2024/02/01 03:09:35;;;;;;;28.45;17.30;;;;;;;2.48;71.13;99209.59;5052165;27;20477;-62
2024/02/01 03:12:06;;;;;;;28.23;17.73;;;;;;;2.48;71.83;99206.94;5052134;28;20093;-62
2024/02/01 03:14:38;;;;;;;26.75;17.13;;;;;;;2.46;71.67;99200.91;5052082;28;20112;-61
2024/02/01 03:17:09;;;;;;;26.10;16.70;;;;;;;2.52;71.88;99198.72;5052882;28;20343;-62
2024/02/01 03:19:42;;;;;;;29.73;17.52;;;;;;;2.43;72.30;99184.28;5051885;28;20033;-61
2024/02/01 03:22:08;;;;;;;29.17;17.05;;;;;;;2.40;71.71;99183.59;5051778;28;20356;-62
2024/02/01 03:24:34;;;;;;;26.45;16.08;;;;;;;2.38;72.13;99173.09;5052073;28;20029;-62
2024/02/01 03:26:59;;;;;;;27.25;17.45;;;;;;;2.40;71.98;99157.19;5051703;28;20039;-61
2024/02/01 03:29:28;;;;;;;28.05;16.80;;;;;;;2.48;72.03;99167.31;5051707;28;20037;-62
2024/02/01 03:32:05;;;;;;;26.08;15.50;;;;;;;2.52;71.77;99163.53;5050918;28;20109;-62
2024/02/01 03:34:31;;;;;;;25.75;15.75;;;;;;;2.49;72.03;99159.28;5052387;28;20077;-63
2024/02/01 03:36:58;;;;;;;25.55;16.27;;;;;;;2.50;72.08;99152.22;5051001;28;20215;-62
2024/02/01 03:39:24;;;;;;;26.23;15.13;;;;;;;2.56;72.28;99159.78;5051263;28;20026;-63
2024/02/01 03:41:54;;;;;;;25.05;15.63;;;;;;;2.57;72.06;99145.63;5051805;28;20104;-62
2024/02/01 03:44:24;;;;;;;25.45;15.43;;;;;;;2.62;72.18;99143.56;5052057;28;20040;-62
2024/02/01 03:46:57;;;;;;;22.98;15.30;;;;;;;2.56;72.40;99128.06;5050806;28;20108;-62
2024/02/01 03:49:24;;;;;;;22.90;14.70;;;;;;;2.63;72.40;99134.69;5051172;28;20472;-62
2024/02/01 03:51:50;;;;;;;26.73;15.40;;;;;;;2.63;72.24;99128.56;5051948;28;20033;-63
2024/02/01 03:54:16;;;;;;;25.73;15.93;;;;;;;2.66;72.60;99125.72;5051933;28;20064;-62
2024/02/01 03:56:42;;;;;;;21.70;14.73;;;;;;;2.66;72.43;99121.31;5050920;28;20070;-62
2024/02/01 03:59:09;;;;;;;25.35;15.23;;;;;;;2.65;72.93;99114.31;5050304;28;20049;-61
2024/02/01 04:01:41;;;;;;;22.85;14.30;;;;;;;2.71;72.48;99107.81;5051669;28;20021;-62
2024/02/01 04:04:07;;;;;;;24.85;15.50;;;;;;;2.72;71.85;99123.59;5051902;28;20037;-61
2024/02/01 04:06:36;;;;;;;28.52;15.60;;;;;;;2.78;72.66;99118.88;5050747;28;20481;-62
2024/02/01 04:09:03;;;;;;;26.63;15.55;;;;;;;2.70;72.01;99109.63;5050420;27;20083;-63
2024/02/01 04:11:30;;;;;;;24.38;15.18;;;;;;;2.71;72.10;99106.03;5051627;28;20420;-63
2024/02/01 04:13:56;;;;;;;24.90;15.32;;;;;;;2.63;72.06;99100.31;5051296;28;20025;-62
2024/02/01 04:16:22;;;;;;;25.13;15.95;;;;;;;2.67;72.14;99099.22;5050334;28;20106;-63
2024/02/01 04:18:48;;;;;;;26.63;16.08;;;;;;;2.37;72.28;99049.88;5050784;28;20047;-62
2024/02/01 04:21:13;;;;;;;29.50;16.80;;;;;;;2.72;72.71;99102.44;5051594;28;20036;-63
2024/02/01 04:23:40;;;;;;;29.08;16.83;;;;;;;2.56;72.65;99070.78;5051674;28;20029;-61
2024/02/01 04:26:06;;;;;;;30.50;16.95;;;;;;;2.65;72.25;99087.91;5050073;28;20036;-62
2024/02/01 04:28:33;;;;;;;26.95;16.83;;;;;;;2.69;72.53;99083.25;5050535;28;20116;-62
2024/02/01 04:31:01;;;;;;;27.73;17.25;;;;;;;2.81;72.51;99108.09;5050979;28;20041;-62
2024/02/01 04:33:28;;;;;;;28.17;16.45;;;;;;;2.82;72.72;99102.75;5050928;28;20148;-62
2024/02/01 04:35:53;;;;;;;29.15;16.58;;;;;;;2.80;72.45;99086.13;5050666;28;20039;-62
2024/02/01 04:38:20;;;;;;;26.35;16.88;;;;;;;2.82;72.68;99086.88;5050560;28;20025;-62
2024/02/01 04:40:46;;;;;;;28.88;16.70;;;;;;;2.86;72.59;99083.09;5049981;28;20043;-64
2024/02/01 04:43:11;;;;;;;27.50;16.15;;;;;;;2.88;72.70;99083.00;5050422;28;20107;-62
2024/02/01 04:45:37;;;;;;;25.52;15.98;;;;;;;2.88;72.62;99085.63;5050716;28;20416;-63
2024/02/01 04:48:10;;;;;;;28.02;17.02;;;;;;;2.87;72.88;99081.28;5050123;28;20025;-62
2024/02/01 04:50:37;;;;;;;25.13;16.05;;;;;;;2.87;72.65;99068.06;5050588;28;20456;-63
2024/02/01 04:53:04;;;;;;;24.77;15.60;;;;;;;2.93;72.04;99074.78;5047580;28;20483;-63
2024/02/01 04:55:29;;;;;;;26.73;16.70;;;;;;;2.90;71.88;99078.47;5049010;28;20067;-63
2024/02/01 04:57:55;;;;;;;26.92;16.63;;;;;;;2.90;72.00;99070.56;5050488;28;20444;-62
2024/02/01 05:00:21;;;;;;;27.05;16.90;;;;;;;2.60;72.15;99021.22;5050210;28;20048;-61
2024/02/01 05:02:47;;;;;;;27.98;16.48;;;;;;;2.86;71.64;99067.22;5050110;28;20085;-66
2024/02/01 05:05:15;;;;;;;26.27;16.25;;;;;;;2.85;71.94;99075.25;5050561;28;20420;-61
2024/02/01 05:07:41;;;;;;;28.02;16.13;;;;;;;2.83;71.83;99062.13;5049850;28;20048;-60
2024/02/01 05:10:08;;;;;;;26.88;16.00;;;;;;;2.87;72.08;99065.44;5049648;28;20037;-56
2024/02/01 05:12:37;;;;;;;31.55;16.23;;;;;;;2.84;72.11;99052.41;5050167;27;20517;-59
2024/02/01 05:15:04;;;;;;;28.33;17.15;;;;;;;2.91;72.47;99056.38;5049874;28;20020;-59
2024/02/01 05:17:30;;;;;;;26.52;16.27;;;;;;;2.97;72.39;99045.44;5049596;28;20072;-54
2024/02/01 05:19:59;;;;;;;31.75;18.35;;;;;;;2.93;72.25;99043.06;5106327;27;20059;-59
2024/02/01 05:22:28;;;;;;;31.38;17.88;;;;;;;3.00;72.05;99052.28;5049158;28;20448;-59
2024/02/01 05:24:54;;;;;;;28.52;17.02;;;;;;;2.98;71.92;99044.47;5049512;28;20071;-53
2024/02/01 05:27:20;;;;;;;32.00;17.77;;;;;;;2.99;72.35;99037.38;5054511;27;20053;-57
2024/02/01 05:29:49;;;;;;;32.45;19.08;;;;;;;2.95;72.18;99022.66;5134793;27;20081;-56
2024/02/01 05:32:16;;;;;;;32.10;17.90;;;;;;;3.01;72.38;99033.72;5099709;27;20033;-64
2024/02/01 05:34:42;;;;;;;30.67;18.08;;;;;;;3.00;72.14;99037.28;5049947;28;20360;-61
2024/02/01 05:37:08;;;;;;;34.60;18.05;;;;;;;3.02;71.90;99039.84;5049147;28;20053;-64
2024/02/01 05:39:34;;;;;;;34.22;19.10;;;;;;;3.01;71.76;99032.84;5050212;28;20123;-65
2024/02/01 05:42:02;;;;;;;32.75;18.17;;;;;;;2.99;71.87;99034.72;5049423;28;20107;-65
2024/02/01 05:44:28;;;;;;;36.50;19.17;;;;;;;2.96;71.61;99030.50;5049319;28;20463;-64
2024/02/01 05:46:56;;;;;;;37.42;18.70;;;;;;;2.91;71.85;99024.66;5055244;27;20021;-65
2024/02/01 05:49:23;;;;;;;35.53;19.30;;;;;;;2.92;71.59;99029.00;5050249;27;20124;-63
2024/02/01 05:51:52;;;;;;;39.15;21.25;;;;;;;2.85;71.87;99011.78;5060402;27;20029;-64
2024/02/01 05:54:22;;;;;;;36.17;19.38;;;;;;;2.95;71.79;99022.66;5060305;27;20060;-65
2024/02/01 05:56:48;;;;;;;35.30;19.67;;;;;;;2.90;71.78;99015.03;5055131;28;20037;-64
2024/02/01 05:59:16;;;;;;;33.50;18.88;;;;;;;2.81;71.59;98986.50;5050074;28;20423;-61
2024/02/01 06:01:46;;;;;;;40.65;21.45;;;;;;;2.91;71.73;99006.16;5049351;28;20040;-65
2024/02/01 06:04:13;;;;;;;40.72;20.92;;;;;;;2.81;72.24;99005.88;5049416;28;20104;-64
2024/02/01 06:06:44;;;;;;;43.03;19.67;;;;;;;2.84;72.55;98988.94;5054983;27;20049;-64
2024/02/01 06:09:13;;;;;;;36.28;19.98;;;;;;;2.75;71.98;98981.59;5055384;27;20368;-63
2024/02/01 06:11:39;;;;;;;39.22;20.98;;;;;;;2.78;72.10;98991.97;5048956;28;20025;-65
2024/02/01 06:14:05;;;;;;;40.42;20.15;;;;;;;2.76;71.90;98978.00;5049160;28;20040;-67
2024/02/01 06:16:30;;;;;;;38.55;19.98;;;;;;;2.49;72.57;98931.19;5049565;28;20024;-66
2024/02/01 06:18:56;;;;;;;38.35;19.65;;;;;;;2.78;72.04;98978.75;5049360;28;20033;-66
2024/02/01 06:21:21;;;;;;;41.00;21.48;;;;;;;2.78;72.01;98970.81;5049243;28;20246;-66
2024/02/01 06:23:47;;;;;;;43.20;21.92;;;;;;;2.81;71.95;98983.84;5054343;27;20052;-63
2024/02/01 06:26:25;;;;;;;37.45;19.38;;;;;;;2.90;71.86;98983.28;5055200;27;20033;-65
2024/02/01 06:28:53;;;;;;;40.17;21.80;;;;;;;2.81;71.72;98986.50;5048771;28;20048;-66
2024/02/01 06:31:19;;;;;;;40.83;20.48;;;;;;;2.56;71.79;98945.72;5048298;28;20417;-60
2024/02/01 06:33:50;;;;;;;44.28;20.98;;;;;;;2.81;71.92;98979.44;5047882;28;20033;-62
2024/02/01 06:36:20;;;;;;;43.70;20.65;;;;;;;2.84;72.10;98976.59;5048867;28;20357;-61
2024/02/01 06:44:25;;;;;;;41.45;20.77;;;;;;;2.93;71.42;98954.00;5070891;28;20033;-62
2024/02/01 07:13:58;;;;;;;;;;;;;;;3.47;70.53;98928.53;5047835;28;20029;-60
2024/02/01 07:16:36;;;;;;;33.88;18.17;;;;;;;3.25;70.20;98916.72;5048878;28;20362;-62
2024/02/01 07:24:45;;;;;;;39.17;18.80;;;;;;;3.30;69.82;98911.13;5048980;28;20394;-61
2024/02/01 07:57:36;;;;;;;37.35;19.23;;;;;;;3.44;69.74;98873.19;5051347;28;20029;-61
2024/02/01 08:00:04;;;;;;;39.03;20.33;;;;;;;3.47;69.81;98880.03;5049900;28;20475;-62
2024/02/01 08:02:49;;;;;;;37.92;17.90;;;;;;;3.51;69.90;98869.16;5051781;28;20033;-61
2024/02/01 08:08:04;;;;;;;31.25;16.40;;;;;;;3.72;69.40;98869.50;5051257;28;20045;-62
2024/02/01 08:10:31;;;;;;;34.65;17.23;;;;;;;3.72;68.94;98863.38;5051151;28;20500;-61
2024/02/01 08:13:05;;;;;;;31.58;17.40;;;;;;;3.70;69.09;98841.47;5051719;28;20073;-62
2024/02/01 08:15:37;;;;;;;34.67;17.23;;;;;;;3.88;68.68;98855.22;5051268;28;20352;-63
2024/02/01 08:18:08;;;;;;;34.50;18.05;;;;;;;3.85;68.38;98848.34;5051127;28;20057;-62
2024/02/01 08:20:40;;;;;;;37.53;18.40;;;;;;;3.89;68.60;98830.44;5050999;28;20045;-62
2024/02/01 08:23:07;;;;;;;31.27;17.05;;;;;;;3.96;69.10;98838.81;5051544;28;20112;-61
2024/02/01 08:25:33;;;;;;;36.10;16.98;;;;;;;3.98;68.55;98844.84;5050733;28;20040;-61
2024/02/01 08:28:00;;;;;;;34.05;17.35;;;;;;;3.88;68.36;98836.69;5049952;28;20025;-62
2024/02/01 08:30:29;;;;;;;37.05;17.20;;;;;;;3.95;68.66;98842.41;5050934;28;20040;-63
2024/02/01 08:33:02;;;;;;;35.85;17.40;;;;;;;3.91;68.51;98840.94;5050898;28;20037;-63
2024/02/01 08:35:33;;;;;;;33.50;17.83;;;;;;;4.06;68.96;98829.25;5050887;28;20052;-62
2024/02/01 08:38:08;;;;;;;34.65;17.48;;;;;;;4.17;69.12;98823.22;5050810;28;20036;-62
2024/02/01 08:40:40;;;;;;;39.08;18.25;;;;;;;4.22;68.05;98825.56;5050700;28;20120;-62
2024/02/01 08:43:06;;;;;;;35.22;18.27;;;;;;;4.20;68.32;98803.63;5050774;28;20128;-63
2024/02/01 08:45:37;;;;;;;34.65;18.00;;;;;;;4.22;68.34;98809.66;5050845;28;20037;-61
2024/02/01 08:48:04;;;;;;;36.42;18.80;;;;;;;4.17;68.18;98804.69;5051107;28;20113;-62
2024/02/01 08:50:35;;;;;;;35.42;18.55;;;;;;;4.21;67.88;98807.97;5050234;28;20482;-61
2024/02/01 08:53:01;;;;;;;37.45;19.65;;;;;;;4.13;68.11;98800.56;5050173;28;20037;-61
2024/02/01 08:55:28;;;;;;;40.70;18.85;;;;;;;4.14;67.91;98791.66;5050781;28;20048;-62
2024/02/01 08:58:08;;;;;;;36.13;18.50;;;;;;;3.86;68.01;98732.69;5050235;28;20093;-62
2024/02/01 09:00:36;;;;;;;35.55;18.25;;;;;;;4.19;67.87;98770.97;5050253;28;20033;-62
2024/02/01 09:03:05;;;;;;;33.85;18.20;;;;;;;4.19;67.77;98770.97;5050886;28;20029;-61
2024/02/01 09:05:40;;;;;;;37.65;18.50;;;;;;;4.26;67.59;98774.03;5050178;28;20029;-63
2024/02/01 09:08:14;;;;;;;38.78;18.33;;;;;;;4.25;67.51;98767.91;5046444;27;20030;-59
2024/02/01 09:10:57;;;;;;;37.80;19.00;;;;;;;4.16;68.04;98776.50;5050396;28;20418;-60
2024/02/01 09:13:24;;;;;;;39.72;19.20;;;;;;;4.08;68.00;98752.34;5049478;28;20040;-62
2024/02/01 09:15:51;;;;;;;39.90;19.80;;;;;;;4.01;68.43;98754.59;5049950;28;20044;-60
2024/02/01 09:18:18;;;;;;;40.88;19.33;;;;;;;3.95;68.53;98750.56;5050257;28;20033;-64
2024/02/01 09:20:44;;;;;;;39.42;19.42;;;;;;;3.94;68.92;98751.53;5050360;28;20028;-64
2024/02/01 09:23:13;;;;;;;40.25;19.63;;;;;;;3.86;68.39;98738.84;5062491;27;20029;-64
2024/02/01 09:25:40;;;;;;;39.17;19.52;;;;;;;3.88;68.91;98747.53;5134008;27;20038;-63
2024/02/01 09:28:13;;;;;;;39.28;19.63;;;;;;;3.87;68.75;98734.38;5134590;27;20055;-64
2024/02/01 09:30:47;;;;;;;38.08;19.88;;;;;;;3.76;69.28;98711.31;5134507;27;20027;-64
2024/02/01 09:33:13;;;;;;;39.80;20.00;;;;;;;3.86;68.91;98732.69;5101850;27;20018;-70
2024/02/01 09:35:39;;;;;;;43.67;20.20;;;;;;;3.74;69.39;98713.22;5044731;27;20424;-65
2024/02/01 09:38:04;;;;;;;40.83;19.58;;;;;;;3.82;69.59;98732.03;5031049;28;20041;-66
2024/02/01 09:40:30;;;;;;;45.20;19.75;;;;;;;3.88;69.70;98720.19;5051073;27;20083;-66
2024/02/01 09:42:56;;;;;;;40.15;19.20;;;;;;;3.86;68.70;98703.56;5048292;28;20025;-62
2024/02/01 09:45:29;;;;;;;37.92;19.55;;;;;;;3.81;69.09;98679.22;5049824;28;20037;-65
2024/02/01 09:47:56;;;;;;;38.47;18.52;;;;;;;3.86;68.87;98701.78;5103309;27;20038;-64
2024/02/01 09:50:23;;;;;;;38.83;19.48;;;;;;;3.85;68.36;98697.41;5049424;28;20130;-67
2024/02/01 09:52:51;;;;;;;40.67;19.25;;;;;;;3.87;69.29;98698.16;5049133;28;20045;-70
2024/02/01 09:55:19;;;;;;;42.33;20.25;;;;;;;3.86;69.32;98685.88;5053552;27;20739;-67
2024/02/01 09:57:52;;;;;;;39.60;19.63;;;;;;;4.00;68.84;98687.53;5048713;28;20044;-67
2024/02/01 10:00:23;;;;;;;39.38;19.48;;;;;;;4.04;68.94;98690.78;5039841;28;20041;-67
2024/02/01 10:02:51;;;;;;;38.40;19.55;;;;;;;4.07;68.57;98677.31;5048753;28;20039;-67
2024/02/01 10:05:19;;;;;;;40.45;20.00;;;;;;;4.00;68.71;98674.31;5047302;28;20200;-65
2024/02/01 10:07:45;;;;;;;35.88;18.95;;;;;;;4.08;68.18;98670.25;5049449;28;20033;-65
2024/02/01 10:10:13;;;;;;;37.97;19.35;;;;;;;4.08;67.94;98657.81;5049307;28;20085;-65
2024/02/01 10:12:43;;;;;;;37.00;17.92;;;;;;;4.05;68.06;98650.09;5032253;28;20360;-66
2024/02/01 10:15:10;;;;;;;35.92;18.17;;;;;;;4.09;68.24;98654.22;5048696;28;20123;-68
2024/02/01 10:17:46;;;;;;;38.00;19.20;;;;;;;4.08;67.60;98644.59;5049326;28;20367;-66
2024/02/01 10:20:39;;;;;;;36.72;19.02;;;;;;;4.12;67.82;98640.78;5040494;28;20449;-65
2024/02/01 10:23:07;;;;;;;33.40;18.55;;;;;;;4.07;67.66;98640.25;5037935;28;20033;-67
2024/02/01 10:25:38;;;;;;;35.97;18.05;;;;;;;4.02;67.42;98630.00;5039905;28;20017;-65
2024/02/01 10:28:08;;;;;;;38.17;19.23;;;;;;;4.07;68.30;98627.00;5041062;28;20037;-65
2024/02/01 10:30:41;;;;;;;38.55;18.92;;;;;;;4.08;67.80;98615.44;5038802;28;20021;-64
2024/02/01 10:33:11;;;;;;;33.22;18.33;;;;;;;4.13;67.83;98608.03;5037657;28;20047;-66
2024/02/01 10:35:37;;;;;;;38.70;18.40;;;;;;;4.15;67.09;98608.75;5036644;28;20467;-64
2024/02/01 10:38:13;;;;;;;37.67;18.13;;;;;;;3.85;67.67;98562.34;5038607;28;20029;-64
2024/02/01 10:41:11;;;;;;;37.03;17.67;;;;;;;4.21;67.70;98606.59;5036944;28;20133;-63
2024/02/01 10:43:42;;;;;;;36.10;17.85;;;;;;;4.14;67.73;98599.13;5036969;28;20329;-64
2024/02/01 10:46:11;;;;;;;36.55;18.90;;;;;;;4.20;67.39;98602.28;5036631;28;20417;-66
2024/02/01 10:48:48;;;;;;;33.97;18.63;;;;;;;4.36;67.17;98604.63;5040331;28;20037;-65
2024/02/01 10:51:15;;;;;;;35.35;18.40;;;;;;;4.35;66.83;98605.59;5041415;28;20108;-67
2024/02/01 10:53:43;;;;;;;32.25;17.67;;;;;;;4.39;66.52;98591.13;5037497;28;20040;-69
2024/02/01 10:56:16;;;;;;;33.67;17.15;;;;;;;4.30;66.34;98592.66;5024027;28;20032;-68
2024/02/01 10:58:53;;;;;;;34.20;17.88;;;;;;;4.33;66.68;98568.59;5028935;28;20045;-68
2024/02/01 11:01:24;;;;;;;33.47;17.70;;;;;;;4.40;66.72;98579.56;5016480;28;20100;-68
2024/02/01 11:03:59;;;;;;;31.88;17.10;;;;;;;4.36;66.59;98576.34;5046718;28;20036;-66
2024/02/01 11:06:26;;;;;;;33.85;18.50;;;;;;;4.31;66.11;98587.25;5031821;28;20062;-66
2024/02/01 11:08:53;;;;;;;33.03;18.00;;;;;;;4.16;66.85;98578.66;5028372;28;20057;-67
2024/02/01 11:11:22;;;;;;;33.60;17.38;;;;;;;4.11;66.68;98567.56;5028264;28;20026;-68
2024/02/01 11:14:15;;;;;;;33.25;17.75;;;;;;;4.21;67.26;98567.69;5028402;28;20033;-68
2024/02/01 11:16:42;;;;;;;32.20;17.98;;;;;;;4.07;67.40;98560.78;5094334;27;20118;-66
2024/02/01 11:19:12;;;;;;;32.63;17.42;;;;;;;4.07;67.09;98558.13;5136096;27;20034;-67
2024/02/01 11:21:49;;;;;;;31.85;16.17;;;;;;;4.10;67.03;98550.00;5040464;28;20119;-66
2024/02/01 11:24:22;;;;;;;28.73;16.65;;;;;;;3.87;67.14;98514.59;5052309;28;20058;-67
2024/02/01 11:26:54;;;;;;;33.38;16.83;;;;;;;4.01;67.53;98545.34;5051304;28;20033;-67
2024/02/01 11:29:24;;;;;;;36.30;17.50;;;;;;;4.08;67.94;98551.88;5051408;28;20166;-68
2024/02/01 11:31:57;;;;;;;29.80;16.38;;;;;;;4.17;67.20;98545.06;5051515;28;20025;-67
2024/02/01 11:34:24;;;;;;;31.48;17.13;;;;;;;4.08;67.24;98535.97;5052187;28;20028;-69
2024/02/01 11:36:49;;;;;;;30.48;16.73;;;;;;;4.14;67.05;98537.34;5112637;27;20027;-68
2024/02/01 11:39:15;;;;;;;30.92;16.55;;;;;;;4.16;66.71;98523.03;5135412;27;20027;-67
2024/02/01 11:41:48;;;;;;;27.13;14.98;;;;;;;4.18;66.41;98524.72;5136149;27;20319;-66
2024/02/01 11:44:14;;;;;;;28.92;16.08;;;;;;;4.14;66.64;98524.94;5095965;27;20037;-65
2024/02/01 11:46:45;;;;;;;27.40;16.00;;;;;;;4.16;66.82;98528.31;5040259;28;20026;-65
2024/02/01 11:49:19;;;;;;;26.02;14.32;;;;;;;4.20;66.62;98522.78;5038845;28;20052;-65
2024/02/01 11:51:50;;;;;;;27.02;15.00;;;;;;;4.14;66.48;98522.31;5040110;28;20516;-64
2024/02/01 11:54:16;;;;;;;25.50;14.32;;;;;;;4.06;66.73;98516.72;5042601;28;20032;-64
2024/02/01 11:56:45;;;;;;;27.30;14.70;;;;;;;4.05;66.79;98512.38;5040976;28;20033;-65
2024/02/01 11:59:11;;;;;;;27.55;15.75;;;;;;;4.06;66.50;98510.59;5040105;28;20128;-66
2024/02/01 12:01:38;;;;;;;28.90;15.00;;;;;;;4.06;66.51;98506.13;5039364;28;20117;-64
2024/02/01 12:04:05;;;;;;;28.63;15.95;;;;;;;4.07;66.65;98505.16;5036126;28;20484;-65
2024/02/01 12:06:31;;;;;;;22.23;13.90;;;;;;;4.02;66.63;98509.97;5055402;27;20017;-65
2024/02/01 12:08:59;;;;;;;24.65;14.38;;;;;;;4.03;66.46;98509.00;5051061;28;20551;-64
2024/02/01 12:11:29;;;;;;;24.80;13.43;;;;;;;4.05;66.35;98504.44;5051526;28;20132;-64
2024/02/01 12:14:00;;;;;;;25.35;14.02;;;;;;;3.99;66.45;98521.66;5051437;28;20129;-66
2024/02/01 12:16:30;;;;;;;24.50;13.65;;;;;;;3.99;66.82;98512.84;5115062;27;20031;-66
2024/02/01 12:18:58;;;;;;;27.52;13.30;;;;;;;3.93;66.83;98506.19;5135069;27;20035;-64
2024/02/01 12:21:27;;;;;;;31.40;14.27;;;;;;;3.87;66.69;98504.00;5048769;27;20054;-62
2024/02/01 12:23:58;;;;;;;24.70;13.27;;;;;;;3.55;67.00;98460.44;5031093;28;20052;-65
2024/02/01 12:26:28;;;;;;;24.23;12.88;;;;;;;3.82;67.24;98499.03;5029828;28;20026;-65
2024/02/01 12:28:55;;;;;;;26.77;14.60;;;;;;;3.63;67.46;98469.63;5046453;28;20112;-67
2024/02/01 12:31:24;;;;;;;24.52;13.52;;;;;;;3.77;67.28;98495.91;5042610;27;20040;-66
2024/02/01 12:33:50;;;;;;;25.02;14.32;;;;;;;3.72;67.68;98488.28;5030304;28;20034;-66
2024/02/01 12:36:18;;;;;;;24.73;13.48;;;;;;;3.69;67.79;98495.63;5029885;28;20458;-68
2024/02/01 12:38:44;;;;;;;24.45;13.15;;;;;;;3.77;67.53;98495.06;5029337;28;20034;-65
2024/02/01 12:41:14;;;;;;;27.73;13.98;;;;;;;3.77;67.29;98485.31;5043148;28;20145;-65
2024/02/01 12:43:40;;;;;;;24.50;13.15;;;;;;;3.78;67.39;98488.81;5049474;28;20440;-65